sensor_id;sensor_type;location;lat;lon;timestamp;P1;durP1;ratioP1;P2;durP2;ratioP2
41263;SDS011;26998;48.714;9.414;2023-04-25T00:00:46;5.60;;;3.45;;
41263;SDS011;26998;48.714;9.414;2023-04-25T00:03:12;4.63;;;3.80;;
41263;SDS011;26998;48.714;9.414;2023-04-25T00:05:39;4.20;;;3.63;;
41263;SDS011;26998;48.714;9.414;2023-04-25T00:08:06;5.68;;;3.72;;
41263;SDS011;26998;48.714;9.414;2023-04-25T00:10:33;4.43;;;3.10;;
41263;SDS011;26998;48.714;9.414;2023-04-25T00:12:59;4.65;;;3.00;;
41263;SDS011;26998;48.714;9.414;2023-04-25T00:15:26;4.75;;;3.80;;
41263;SDS011;26998;48.714;9.414;2023-04-25T00:17:53;4.07;;;3.67;;
41263;SDS011;26998;48.714;9.414;2023-04-25T00:20:19;6.63;;;3.63;;
41263;SDS011;26998;48.714;9.414;2023-04-25T00:22:46;6.32;;;3.92;;
41263;SDS011;26998;48.714;9.414;2023-04-25T00:25:12;5.00;;;3.75;;
41263;SDS011;26998;48.714;9.414;2023-04-25T00:27:39;5.10;;;3.78;;
41263;SDS011;26998;48.714;9.414;2023-04-25T00:30:05;4.55;;;3.60;;
41263;SDS011;26998;48.714;9.414;2023-04-25T00:32:33;6.15;;;4.05;;
41263;SDS011;26998;48.714;9.414;2023-04-25T00:35:01;5.25;;;3.45;;
41263;SDS011;26998;48.714;9.414;2023-04-25T00:37:28;4.60;;;3.55;;
41263;SDS011;26998;48.714;9.414;2023-04-25T00:39:54;6.35;;;3.90;;
41263;SDS011;26998;48.714;9.414;2023-04-25T00:42:21;4.82;;;4.32;;
41263;SDS011;26998;48.714;9.414;2023-04-25T00:44:48;6.88;;;3.60;;
41263;SDS011;26998;48.714;9.414;2023-04-25T00:47:14;4.05;;;3.28;;
41263;SDS011;26998;48.714;9.414;2023-04-25T00:49:41;3.67;;;3.30;;
41263;SDS011;26998;48.714;9.414;2023-04-25T00:52:08;3.72;;;3.40;;
41263;SDS011;26998;48.714;9.414;2023-04-25T00:54:35;9.80;;;4.80;;
41263;SDS011;26998;48.714;9.414;2023-04-25T00:57:01;5.03;;;3.38;;
41263;SDS011;26998;48.714;9.414;2023-04-25T00:59:28;4.05;;;3.05;;
41263;SDS011;26998;48.714;9.414;2023-04-25T01:01:55;3.88;;;3.25;;
41263;SDS011;26998;48.714;9.414;2023-04-25T01:04:21;6.15;;;3.63;;
41263;SDS011;26998;48.714;9.414;2023-04-25T01:06:49;4.40;;;3.78;;
41263;SDS011;26998;48.714;9.414;2023-04-25T01:09:16;5.50;;;4.00;;
41263;SDS011;26998;48.714;9.414;2023-04-25T01:11:42;5.32;;;3.65;;
41263;SDS011;26998;48.714;9.414;2023-04-25T01:14:09;5.43;;;4.10;;
41263;SDS011;26998;48.714;9.414;2023-04-25T01:16:36;3.88;;;3.40;;
41263;SDS011;26998;48.714;9.414;2023-04-25T01:19:04;4.22;;;3.35;;
41263;SDS011;26998;48.714;9.414;2023-04-25T01:21:35;7.15;;;4.50;;
41263;SDS011;26998;48.714;9.414;2023-04-25T01:24:02;3.92;;;3.45;;
41263;SDS011;26998;48.714;9.414;2023-04-25T01:26:29;5.25;;;3.63;;
41263;SDS011;26998;48.714;9.414;2023-04-25T01:28:56;6.43;;;3.78;;
41263;SDS011;26998;48.714;9.414;2023-04-25T01:31:23;8.60;;;4.63;;
41263;SDS011;26998;48.714;9.414;2023-04-25T01:33:50;5.70;;;3.80;;
41263;SDS011;26998;48.714;9.414;2023-04-25T01:36:17;4.82;;;3.60;;
41263;SDS011;26998;48.714;9.414;2023-04-25T01:38:44;5.43;;;3.63;;
41263;SDS011;26998;48.714;9.414;2023-04-25T01:41:11;5.20;;;3.80;;
41263;SDS011;26998;48.714;9.414;2023-04-25T01:43:38;4.88;;;3.97;;
41263;SDS011;26998;48.714;9.414;2023-04-25T01:46:05;5.70;;;4.30;;
41263;SDS011;26998;48.714;9.414;2023-04-25T01:48:32;7.25;;;4.32;;
41263;SDS011;26998;48.714;9.414;2023-04-25T01:50:58;5.53;;;3.95;;
41263;SDS011;26998;48.714;9.414;2023-04-25T01:53:25;6.57;;;4.13;;
41263;SDS011;26998;48.714;9.414;2023-04-25T01:55:51;5.65;;;4.13;;
41263;SDS011;26998;48.714;9.414;2023-04-25T01:58:18;5.82;;;4.20;;
41263;SDS011;26998;48.714;9.414;2023-04-25T02:00:45;6.22;;;4.63;;
41263;SDS011;26998;48.714;9.414;2023-04-25T02:03:12;5.95;;;4.00;;
41263;SDS011;26998;48.714;9.414;2023-04-25T02:05:39;8.00;;;4.72;;
41263;SDS011;26998;48.714;9.414;2023-04-25T02:08:06;8.07;;;4.15;;
41263;SDS011;26998;48.714;9.414;2023-04-25T02:10:35;6.28;;;4.22;;
41263;SDS011;26998;48.714;9.414;2023-04-25T02:13:02;5.55;;;4.00;;
41263;SDS011;26998;48.714;9.414;2023-04-25T02:15:29;5.25;;;4.40;;
41263;SDS011;26998;48.714;9.414;2023-04-25T02:17:56;6.75;;;4.20;;
41263;SDS011;26998;48.714;9.414;2023-04-25T02:20:23;5.45;;;4.25;;
41263;SDS011;26998;48.714;9.414;2023-04-25T02:22:51;4.63;;;4.22;;
41263;SDS011;26998;48.714;9.414;2023-04-25T02:25:18;4.35;;;3.95;;
41263;SDS011;26998;48.714;9.414;2023-04-25T02:27:46;7.00;;;4.40;;
41263;SDS011;26998;48.714;9.414;2023-04-25T02:30:13;6.03;;;4.22;;
41263;SDS011;26998;48.714;9.414;2023-04-25T02:32:40;4.47;;;4.07;;
41263;SDS011;26998;48.714;9.414;2023-04-25T02:35:07;6.47;;;4.80;;
41263;SDS011;26998;48.714;9.414;2023-04-25T02:37:34;7.95;;;4.80;;
41263;SDS011;26998;48.714;9.414;2023-04-25T02:40:02;4.60;;;4.20;;
41263;SDS011;26998;48.714;9.414;2023-04-25T02:42:30;4.47;;;4.03;;
41263;SDS011;26998;48.714;9.414;2023-04-25T02:44:56;6.25;;;4.03;;
41263;SDS011;26998;48.714;9.414;2023-04-25T02:47:23;8.57;;;4.13;;
41263;SDS011;26998;48.714;9.414;2023-04-25T02:49:49;6.10;;;4.18;;
41263;SDS011;26998;48.714;9.414;2023-04-25T02:52:16;6.32;;;4.20;;
41263;SDS011;26998;48.714;9.414;2023-04-25T02:54:42;5.15;;;4.65;;
41263;SDS011;26998;48.714;9.414;2023-04-25T02:57:09;5.05;;;3.90;;
41263;SDS011;26998;48.714;9.414;2023-04-25T02:59:35;7.68;;;3.95;;
41263;SDS011;26998;48.714;9.414;2023-04-25T03:02:02;5.03;;;3.70;;
41263;SDS011;26998;48.714;9.414;2023-04-25T03:04:28;5.07;;;3.35;;
41263;SDS011;26998;48.714;9.414;2023-04-25T03:06:55;5.82;;;3.30;;
41263;SDS011;26998;48.714;9.414;2023-04-25T03:09:21;4.75;;;3.80;;
41263;SDS011;26998;48.714;9.414;2023-04-25T03:11:48;5.03;;;3.70;;
41263;SDS011;26998;48.714;9.414;2023-04-25T03:14:15;5.35;;;3.38;;
41263;SDS011;26998;48.714;9.414;2023-04-25T03:16:41;5.43;;;3.72;;
41263;SDS011;26998;48.714;9.414;2023-04-25T03:19:08;6.57;;;4.10;;
41263;SDS011;26998;48.714;9.414;2023-04-25T03:21:35;6.57;;;4.10;;
41263;SDS011;26998;48.714;9.414;2023-04-25T03:24:02;3.50;;;3.20;;
41263;SDS011;26998;48.714;9.414;2023-04-25T03:26:30;5.97;;;4.57;;
41263;SDS011;26998;48.714;9.414;2023-04-25T03:28:57;5.55;;;4.68;;
41263;SDS011;26998;48.714;9.414;2023-04-25T03:31:23;4.13;;;3.53;;
41263;SDS011;26998;48.714;9.414;2023-04-25T03:33:50;5.45;;;3.47;;
41263;SDS011;26998;48.714;9.414;2023-04-25T03:36:17;4.88;;;3.65;;
41263;SDS011;26998;48.714;9.414;2023-04-25T03:38:44;5.45;;;3.75;;
41263;SDS011;26998;48.714;9.414;2023-04-25T03:41:11;7.68;;;3.83;;
41263;SDS011;26998;48.714;9.414;2023-04-25T03:43:38;4.82;;;3.42;;
41263;SDS011;26998;48.714;9.414;2023-04-25T03:46:04;6.75;;;3.72;;
41263;SDS011;26998;48.714;9.414;2023-04-25T03:48:31;4.53;;;3.25;;
41263;SDS011;26998;48.714;9.414;2023-04-25T03:50:58;4.00;;;3.38;;
41263;SDS011;26998;48.714;9.414;2023-04-25T03:53:24;7.28;;;3.58;;
41263;SDS011;26998;48.714;9.414;2023-04-25T03:55:51;4.57;;;3.85;;
41263;SDS011;26998;48.714;9.414;2023-04-25T03:58:18;5.47;;;4.03;;
41263;SDS011;26998;48.714;9.414;2023-04-25T04:00:44;4.97;;;3.85;;
41263;SDS011;26998;48.714;9.414;2023-04-25T04:03:11;7.78;;;3.88;;
41263;SDS011;26998;48.714;9.414;2023-04-25T04:05:37;6.57;;;3.55;;
41263;SDS011;26998;48.714;9.414;2023-04-25T04:08:04;4.90;;;3.78;;
41263;SDS011;26998;48.714;9.414;2023-04-25T04:10:31;6.47;;;4.00;;
41263;SDS011;26998;48.714;9.414;2023-04-25T04:12:57;5.32;;;3.83;;
41263;SDS011;26998;48.714;9.414;2023-04-25T04:15:23;4.00;;;3.60;;
41263;SDS011;26998;48.714;9.414;2023-04-25T04:17:50;6.20;;;3.78;;
41263;SDS011;26998;48.714;9.414;2023-04-25T04:20:17;6.30;;;3.78;;
41263;SDS011;26998;48.714;9.414;2023-04-25T04:22:43;4.15;;;3.38;;
41263;SDS011;26998;48.714;9.414;2023-04-25T04:25:10;5.88;;;4.00;;
41263;SDS011;26998;48.714;9.414;2023-04-25T04:27:37;6.95;;;4.28;;
41263;SDS011;26998;48.714;9.414;2023-04-25T04:30:04;4.18;;;3.45;;
41263;SDS011;26998;48.714;9.414;2023-04-25T04:32:31;7.15;;;4.05;;
41263;SDS011;26998;48.714;9.414;2023-04-25T04:34:57;4.82;;;3.47;;
41263;SDS011;26998;48.714;9.414;2023-04-25T04:37:24;5.78;;;3.70;;
41263;SDS011;26998;48.714;9.414;2023-04-25T04:39:51;8.00;;;4.25;;
41263;SDS011;26998;48.714;9.414;2023-04-25T04:42:17;4.15;;;3.55;;
41263;SDS011;26998;48.714;9.414;2023-04-25T04:44:44;6.22;;;4.10;;
41263;SDS011;26998;48.714;9.414;2023-04-25T04:47:10;6.72;;;4.30;;
41263;SDS011;26998;48.714;9.414;2023-04-25T04:49:38;6.93;;;4.15;;
41263;SDS011;26998;48.714;9.414;2023-04-25T04:52:04;5.82;;;4.30;;
41263;SDS011;26998;48.714;9.414;2023-04-25T04:54:31;6.93;;;4.18;;
41263;SDS011;26998;48.714;9.414;2023-04-25T04:56:58;7.72;;;3.88;;
41263;SDS011;26998;48.714;9.414;2023-04-25T04:59:24;5.97;;;3.58;;
41263;SDS011;26998;48.714;9.414;2023-04-25T05:01:52;5.57;;;3.60;;
41263;SDS011;26998;48.714;9.414;2023-04-25T05:04:18;5.45;;;3.47;;
41263;SDS011;26998;48.714;9.414;2023-04-25T05:06:45;6.70;;;3.83;;
41263;SDS011;26998;48.714;9.414;2023-04-25T05:09:14;4.40;;;3.30;;
41263;SDS011;26998;48.714;9.414;2023-04-25T05:11:41;5.38;;;3.72;;
41263;SDS011;26998;48.714;9.414;2023-04-25T05:14:08;5.97;;;4.00;;
41263;SDS011;26998;48.714;9.414;2023-04-25T05:16:34;8.00;;;3.58;;
41263;SDS011;26998;48.714;9.414;2023-04-25T05:19:01;5.55;;;3.92;;
41263;SDS011;26998;48.714;9.414;2023-04-25T05:21:27;5.20;;;4.05;;
41263;SDS011;26998;48.714;9.414;2023-04-25T05:23:54;6.03;;;4.20;;
41263;SDS011;26998;48.714;9.414;2023-04-25T05:26:20;6.35;;;4.18;;
41263;SDS011;26998;48.714;9.414;2023-04-25T05:28:47;6.55;;;4.38;;
41263;SDS011;26998;48.714;9.414;2023-04-25T05:31:13;8.15;;;4.65;;
41263;SDS011;26998;48.714;9.414;2023-04-25T05:33:40;7.20;;;4.63;;
41263;SDS011;26998;48.714;9.414;2023-04-25T05:36:06;12.18;;;4.72;;
41263;SDS011;26998;48.714;9.414;2023-04-25T05:38:33;10.52;;;5.00;;
41263;SDS011;26998;48.714;9.414;2023-04-25T05:41:02;7.00;;;4.43;;
41263;SDS011;26998;48.714;9.414;2023-04-25T05:43:28;9.70;;;4.40;;
41263;SDS011;26998;48.714;9.414;2023-04-25T05:45:55;8.70;;;3.83;;
41263;SDS011;26998;48.714;9.414;2023-04-25T05:48:22;10.18;;;4.22;;
41263;SDS011;26998;48.714;9.414;2023-04-25T05:50:48;7.28;;;4.38;;
41263;SDS011;26998;48.714;9.414;2023-04-25T05:53:15;13.55;;;5.38;;
41263;SDS011;26998;48.714;9.414;2023-04-25T05:55:42;7.75;;;4.78;;
41263;SDS011;26998;48.714;9.414;2023-04-25T05:58:09;10.32;;;4.80;;
41263;SDS011;26998;48.714;9.414;2023-04-25T06:00:35;7.90;;;5.28;;
41263;SDS011;26998;48.714;9.414;2023-04-25T06:03:02;9.43;;;4.43;;
41263;SDS011;26998;48.714;9.414;2023-04-25T06:05:30;15.40;;;5.05;;
41263;SDS011;26998;48.714;9.414;2023-04-25T06:07:57;9.93;;;5.95;;
41263;SDS011;26998;48.714;9.414;2023-04-25T06:10:25;9.13;;;6.60;;
41263;SDS011;26998;48.714;9.414;2023-04-25T06:12:51;11.93;;;4.97;;
41263;SDS011;26998;48.714;9.414;2023-04-25T06:15:18;11.23;;;6.10;;
41263;SDS011;26998;48.714;9.414;2023-04-25T06:17:47;13.93;;;6.45;;
41263;SDS011;26998;48.714;9.414;2023-04-25T06:20:14;10.82;;;5.18;;
41263;SDS011;26998;48.714;9.414;2023-04-25T06:22:41;7.13;;;4.30;;
41263;SDS011;26998;48.714;9.414;2023-04-25T06:25:08;5.28;;;3.40;;
41263;SDS011;26998;48.714;9.414;2023-04-25T06:27:34;8.25;;;3.97;;
41263;SDS011;26998;48.714;9.414;2023-04-25T06:30:01;7.60;;;3.90;;
41263;SDS011;26998;48.714;9.414;2023-04-25T06:32:28;6.05;;;3.60;;
41263;SDS011;26998;48.714;9.414;2023-04-25T06:34:55;5.03;;;4.15;;
41263;SDS011;26998;48.714;9.414;2023-04-25T06:37:22;7.97;;;5.60;;
41263;SDS011;26998;48.714;9.414;2023-04-25T06:39:48;10.45;;;4.47;;
41263;SDS011;26998;48.714;9.414;2023-04-25T06:42:15;7.80;;;4.25;;
41263;SDS011;26998;48.714;9.414;2023-04-25T06:44:42;5.60;;;4.00;;
41263;SDS011;26998;48.714;9.414;2023-04-25T06:47:09;5.07;;;3.50;;
41263;SDS011;26998;48.714;9.414;2023-04-25T06:49:36;3.88;;;2.97;;
41263;SDS011;26998;48.714;9.414;2023-04-25T06:52:03;6.38;;;2.90;;
41263;SDS011;26998;48.714;9.414;2023-04-25T06:54:29;4.00;;;2.97;;
41263;SDS011;26998;48.714;9.414;2023-04-25T06:56:56;6.65;;;3.22;;
41263;SDS011;26998;48.714;9.414;2023-04-25T06:59:22;4.85;;;3.72;;
41263;SDS011;26998;48.714;9.414;2023-04-25T07:01:49;6.43;;;3.55;;
41263;SDS011;26998;48.714;9.414;2023-04-25T07:04:15;4.22;;;3.78;;
41263;SDS011;26998;48.714;9.414;2023-04-25T07:06:42;6.53;;;3.35;;
41263;SDS011;26998;48.714;9.414;2023-04-25T07:09:09;5.28;;;3.80;;
41263;SDS011;26998;48.714;9.414;2023-04-25T07:11:36;8.27;;;3.28;;
41263;SDS011;26998;48.714;9.414;2023-04-25T07:14:03;4.47;;;3.70;;
41263;SDS011;26998;48.714;9.414;2023-04-25T07:16:29;5.43;;;3.65;;
41263;SDS011;26998;48.714;9.414;2023-04-25T07:19:03;9.02;;;3.58;;
41263;SDS011;26998;48.714;9.414;2023-04-25T07:21:30;10.90;;;3.53;;
41263;SDS011;26998;48.714;9.414;2023-04-25T07:23:57;6.03;;;3.58;;
41263;SDS011;26998;48.714;9.414;2023-04-25T07:26:23;3.28;;;2.90;;
41263;SDS011;26998;48.714;9.414;2023-04-25T07:28:50;5.05;;;3.65;;
41263;SDS011;26998;48.714;9.414;2023-04-25T07:31:17;8.35;;;4.28;;
41263;SDS011;26998;48.714;9.414;2023-04-25T07:33:44;3.90;;;3.20;;
41263;SDS011;26998;48.714;9.414;2023-04-25T07:36:11;6.07;;;3.45;;
41263;SDS011;26998;48.714;9.414;2023-04-25T07:38:40;3.50;;;3.20;;
41263;SDS011;26998;48.714;9.414;2023-04-25T07:41:06;5.63;;;3.90;;
41263;SDS011;26998;48.714;9.414;2023-04-25T07:43:33;6.95;;;4.00;;
41263;SDS011;26998;48.714;9.414;2023-04-25T07:45:59;7.20;;;3.90;;
41263;SDS011;26998;48.714;9.414;2023-04-25T07:48:26;4.82;;;3.88;;
41263;SDS011;26998;48.714;9.414;2023-04-25T07:50:53;7.47;;;3.95;;
41263;SDS011;26998;48.714;9.414;2023-04-25T07:53:19;9.57;;;4.60;;
41263;SDS011;26998;48.714;9.414;2023-04-25T07:55:46;12.10;;;4.13;;
41263;SDS011;26998;48.714;9.414;2023-04-25T07:58:12;8.65;;;4.07;;
41263;SDS011;26998;48.714;9.414;2023-04-25T08:00:39;9.60;;;4.78;;
41263;SDS011;26998;48.714;9.414;2023-04-25T08:03:06;6.45;;;3.95;;
41263;SDS011;26998;48.714;9.414;2023-04-25T08:05:37;7.13;;;4.25;;
41263;SDS011;26998;48.714;9.414;2023-04-25T08:08:04;11.75;;;4.38;;
41263;SDS011;26998;48.714;9.414;2023-04-25T08:10:31;8.73;;;4.40;;
41263;SDS011;26998;48.714;9.414;2023-04-25T08:12:58;7.97;;;5.32;;
41263;SDS011;26998;48.714;9.414;2023-04-25T08:15:25;11.23;;;5.78;;
41263;SDS011;26998;48.714;9.414;2023-04-25T08:17:51;11.13;;;5.45;;
41263;SDS011;26998;48.714;9.414;2023-04-25T08:20:18;9.07;;;5.03;;
41263;SDS011;26998;48.714;9.414;2023-04-25T08:22:45;7.63;;;5.57;;
41263;SDS011;26998;48.714;9.414;2023-04-25T08:25:11;10.90;;;5.22;;
41263;SDS011;26998;48.714;9.414;2023-04-25T08:27:38;9.65;;;5.18;;
41263;SDS011;26998;48.714;9.414;2023-04-25T08:30:04;8.38;;;4.93;;
41263;SDS011;26998;48.714;9.414;2023-04-25T08:32:32;6.78;;;4.28;;
41263;SDS011;26998;48.714;9.414;2023-04-25T08:34:58;6.03;;;4.55;;
41263;SDS011;26998;48.714;9.414;2023-04-25T08:37:25;6.85;;;4.18;;
41263;SDS011;26998;48.714;9.414;2023-04-25T08:39:51;6.13;;;4.82;;
41263;SDS011;26998;48.714;9.414;2023-04-25T08:42:18;6.45;;;4.85;;
41263;SDS011;26998;48.714;9.414;2023-04-25T08:44:45;9.70;;;5.40;;
41263;SDS011;26998;48.714;9.414;2023-04-25T08:47:14;17.13;;;5.40;;
41263;SDS011;26998;48.714;9.414;2023-04-25T08:49:43;6.38;;;4.43;;
41263;SDS011;26998;48.714;9.414;2023-04-25T08:52:11;5.93;;;5.10;;
41263;SDS011;26998;48.714;9.414;2023-04-25T08:54:43;7.30;;;4.10;;
41263;SDS011;26998;48.714;9.414;2023-04-25T08:57:14;6.50;;;4.38;;
41263;SDS011;26998;48.714;9.414;2023-04-25T08:59:41;5.22;;;3.72;;
41263;SDS011;26998;48.714;9.414;2023-04-25T09:02:08;9.00;;;5.28;;
41263;SDS011;26998;48.714;9.414;2023-04-25T09:04:34;9.38;;;5.05;;
41263;SDS011;26998;48.714;9.414;2023-04-25T09:07:02;7.72;;;5.00;;
41263;SDS011;26998;48.714;9.414;2023-04-25T09:09:29;9.07;;;6.40;;
41263;SDS011;26998;48.714;9.414;2023-04-25T09:11:55;11.27;;;6.28;;
41263;SDS011;26998;48.714;9.414;2023-04-25T09:14:22;8.52;;;6.35;;
41263;SDS011;26998;48.714;9.414;2023-04-25T09:19:23;7.00;;;5.93;;
41263;SDS011;26998;48.714;9.414;2023-04-25T09:22:05;7.82;;;6.40;;
41263;SDS011;26998;48.714;9.414;2023-04-25T09:24:33;9.65;;;6.55;;
41263;SDS011;26998;48.714;9.414;2023-04-25T09:27:18;13.60;;;6.75;;
41263;SDS011;26998;48.714;9.414;2023-04-25T09:29:45;7.75;;;6.38;;
41263;SDS011;26998;48.714;9.414;2023-04-25T09:32:18;8.55;;;6.63;;
41263;SDS011;26998;48.714;9.414;2023-04-25T09:34:56;9.05;;;5.35;;
41263;SDS011;26998;48.714;9.414;2023-04-25T09:37:25;7.18;;;5.88;;
41263;SDS011;26998;48.714;9.414;2023-04-25T09:39:58;8.75;;;6.30;;
41263;SDS011;26998;48.714;9.414;2023-04-25T09:42:26;13.23;;;7.93;;
41263;SDS011;26998;48.714;9.414;2023-04-25T09:44:54;11.48;;;8.55;;
41263;SDS011;26998;48.714;9.414;2023-04-25T09:47:22;10.35;;;6.28;;
41263;SDS011;26998;48.714;9.414;2023-04-25T09:49:52;12.32;;;7.57;;
41263;SDS011;26998;48.714;9.414;2023-04-25T09:52:20;10.40;;;7.28;;
41263;SDS011;26998;48.714;9.414;2023-04-25T09:54:51;11.15;;;7.43;;
41263;SDS011;26998;48.714;9.414;2023-04-25T09:57:19;12.05;;;8.05;;
41263;SDS011;26998;48.714;9.414;2023-04-25T09:59:47;19.27;;;8.57;;
41263;SDS011;26998;48.714;9.414;2023-04-25T10:02:19;9.27;;;7.57;;
41263;SDS011;26998;48.714;9.414;2023-04-25T10:04:48;12.40;;;9.13;;
41263;SDS011;26998;48.714;9.414;2023-04-25T10:07:16;12.25;;;8.27;;
41263;SDS011;26998;48.714;9.414;2023-04-25T10:09:44;15.60;;;8.23;;
41263;SDS011;26998;48.714;9.414;2023-04-25T10:12:13;13.32;;;7.97;;
41263;SDS011;26998;48.714;9.414;2023-04-25T10:14:40;12.57;;;8.27;;
41263;SDS011;26998;48.714;9.414;2023-04-25T10:17:08;15.80;;;9.65;;
41263;SDS011;26998;48.714;9.414;2023-04-25T10:19:36;11.43;;;8.07;;
41263;SDS011;26998;48.714;9.414;2023-04-25T10:25:07;14.93;;;8.13;;
41263;SDS011;26998;48.714;9.414;2023-04-25T10:27:34;10.25;;;7.22;;
41263;SDS011;26998;48.714;9.414;2023-04-25T10:30:06;11.13;;;7.82;;
41263;SDS011;26998;48.714;9.414;2023-04-25T10:32:34;10.07;;;7.57;;
41263;SDS011;26998;48.714;9.414;2023-04-25T10:35:11;11.60;;;7.65;;
41263;SDS011;26998;48.714;9.414;2023-04-25T10:37:56;15.50;;;9.45;;
41263;SDS011;26998;48.714;9.414;2023-04-25T10:40:23;12.73;;;8.40;;
41263;SDS011;26998;48.714;9.414;2023-04-25T10:42:51;15.32;;;8.23;;
41263;SDS011;26998;48.714;9.414;2023-04-25T10:45:19;10.65;;;8.02;;
41263;SDS011;26998;48.714;9.414;2023-04-25T10:47:46;8.85;;;6.22;;
41263;SDS011;26998;48.714;9.414;2023-04-25T10:50:16;6.68;;;5.97;;
41263;SDS011;26998;48.714;9.414;2023-04-25T10:52:43;6.65;;;5.47;;
41263;SDS011;26998;48.714;9.414;2023-04-25T10:55:10;13.55;;;6.68;;
41263;SDS011;26998;48.714;9.414;2023-04-25T10:57:44;13.88;;;6.97;;
41263;SDS011;26998;48.714;9.414;2023-04-25T11:02:41;10.85;;;6.03;;
41263;SDS011;26998;48.714;9.414;2023-04-25T11:05:08;13.50;;;6.35;;
41263;SDS011;26998;48.714;9.414;2023-04-25T11:07:43;9.90;;;6.07;;
41263;SDS011;26998;48.714;9.414;2023-04-25T11:10:32;13.52;;;5.45;;
41263;SDS011;26998;48.714;9.414;2023-04-25T11:12:59;10.50;;;5.20;;
41263;SDS011;26998;48.714;9.414;2023-04-25T11:15:26;11.13;;;5.07;;
41263;SDS011;26998;48.714;9.414;2023-04-25T11:17:53;5.07;;;3.65;;
41263;SDS011;26998;48.714;9.414;2023-04-25T11:20:21;4.82;;;3.30;;
41263;SDS011;26998;48.714;9.414;2023-04-25T11:22:50;10.35;;;3.72;;
41263;SDS011;26998;48.714;9.414;2023-04-25T11:25:18;9.27;;;4.57;;
41263;SDS011;26998;48.714;9.414;2023-04-25T11:27:49;5.40;;;3.55;;
41263;SDS011;26998;48.714;9.414;2023-04-25T11:30:16;3.55;;;2.38;;
41263;SDS011;26998;48.714;9.414;2023-04-25T11:32:43;2.25;;;1.90;;
41263;SDS011;26998;48.714;9.414;2023-04-25T11:35:10;2.75;;;1.63;;
41263;SDS011;26998;48.714;9.414;2023-04-25T11:37:39;2.75;;;2.10;;
41263;SDS011;26998;48.714;9.414;2023-04-25T11:40:06;2.05;;;1.80;;
41263;SDS011;26998;48.714;9.414;2023-04-25T11:42:33;2.95;;;1.80;;
41263;SDS011;26998;48.714;9.414;2023-04-25T11:45:01;2.75;;;2.03;;
41263;SDS011;26998;48.714;9.414;2023-04-25T11:47:29;2.50;;;2.10;;
41263;SDS011;26998;48.714;9.414;2023-04-25T11:50:00;5.35;;;2.20;;
41263;SDS011;26998;48.714;9.414;2023-04-25T11:52:36;1.17;;;1.15;;
41263;SDS011;26998;48.714;9.414;2023-04-25T11:55:07;3.10;;;1.25;;
41263;SDS011;26998;48.714;9.414;2023-04-25T11:57:40;1.90;;;1.25;;
41263;SDS011;26998;48.714;9.414;2023-04-25T12:02:44;1.60;;;1.50;;
41263;SDS011;26998;48.714;9.414;2023-04-25T12:05:12;2.35;;;1.30;;
41263;SDS011;26998;48.714;9.414;2023-04-25T12:07:58;2.38;;;1.70;;
41263;SDS011;26998;48.714;9.414;2023-04-25T12:10:36;1.60;;;1.50;;
41263;SDS011;26998;48.714;9.414;2023-04-25T12:13:25;2.88;;;1.60;;
41263;SDS011;26998;48.714;9.414;2023-04-25T12:15:55;2.53;;;1.60;;
41263;SDS011;26998;48.714;9.414;2023-04-25T12:18:25;2.13;;;1.48;;
41263;SDS011;26998;48.714;9.414;2023-04-25T12:20:52;2.67;;;1.90;;
41263;SDS011;26998;48.714;9.414;2023-04-25T12:23:26;2.47;;;2.03;;
41263;SDS011;26998;48.714;9.414;2023-04-25T12:25:54;2.55;;;1.90;;
41263;SDS011;26998;48.714;9.414;2023-04-25T12:28:21;2.00;;;1.80;;
41263;SDS011;26998;48.714;9.414;2023-04-25T12:31:03;1.95;;;1.70;;
41263;SDS011;26998;48.714;9.414;2023-04-25T12:33:35;2.33;;;2.17;;
41263;SDS011;26998;48.714;9.414;2023-04-25T12:36:05;3.17;;;2.33;;
41263;SDS011;26998;48.714;9.414;2023-04-25T12:38:35;1.90;;;1.70;;
41263;SDS011;26998;48.714;9.414;2023-04-25T12:41:06;3.63;;;2.20;;
41263;SDS011;26998;48.714;9.414;2023-04-25T12:43:33;3.47;;;2.47;;
41263;SDS011;26998;48.714;9.414;2023-04-25T12:46:00;3.75;;;2.28;;
41263;SDS011;26998;48.714;9.414;2023-04-25T12:48:26;2.95;;;2.50;;
41263;SDS011;26998;48.714;9.414;2023-04-25T12:50:53;3.17;;;2.10;;
41263;SDS011;26998;48.714;9.414;2023-04-25T12:53:20;2.45;;;2.25;;
41263;SDS011;26998;48.714;9.414;2023-04-25T12:55:47;2.65;;;2.45;;
41263;SDS011;26998;48.714;9.414;2023-04-25T12:58:15;3.05;;;2.75;;
41263;SDS011;26998;48.714;9.414;2023-04-25T13:00:43;4.70;;;2.30;;
41263;SDS011;26998;48.714;9.414;2023-04-25T13:03:10;3.28;;;2.35;;
41263;SDS011;26998;48.714;9.414;2023-04-25T13:05:37;4.78;;;3.92;;
41263;SDS011;26998;48.714;9.414;2023-04-25T13:08:05;4.13;;;2.92;;
41263;SDS011;26998;48.714;9.414;2023-04-25T13:10:32;4.00;;;3.58;;
41263;SDS011;26998;48.714;9.414;2023-04-25T13:12:58;6.95;;;3.70;;
41263;SDS011;26998;48.714;9.414;2023-04-25T13:15:25;5.25;;;3.75;;
41263;SDS011;26998;48.714;9.414;2023-04-25T13:17:51;4.50;;;4.10;;
41263;SDS011;26998;48.714;9.414;2023-04-25T13:20:18;6.15;;;3.55;;
41263;SDS011;26998;48.714;9.414;2023-04-25T13:22:44;8.02;;;4.35;;
41263;SDS011;26998;48.714;9.414;2023-04-25T13:25:11;5.20;;;4.43;;
41263;SDS011;26998;48.714;9.414;2023-04-25T13:27:38;4.55;;;4.13;;
41263;SDS011;26998;48.714;9.414;2023-04-25T13:30:05;10.57;;;4.72;;
41263;SDS011;26998;48.714;9.414;2023-04-25T13:32:33;34.15;;;8.07;;
41263;SDS011;26998;48.714;9.414;2023-04-25T13:35:08;5.50;;;4.45;;
41263;SDS011;26998;48.714;9.414;2023-04-25T13:37:37;5.35;;;4.85;;
41263;SDS011;26998;48.714;9.414;2023-04-25T13:40:05;13.50;;;5.75;;
41263;SDS011;26998;48.714;9.414;2023-04-25T13:42:34;7.30;;;5.35;;
41263;SDS011;26998;48.714;9.414;2023-04-25T13:45:01;9.10;;;5.57;;
41263;SDS011;26998;48.714;9.414;2023-04-25T13:47:28;6.40;;;5.35;;
41263;SDS011;26998;48.714;9.414;2023-04-25T13:49:55;6.45;;;5.50;;
41263;SDS011;26998;48.714;9.414;2023-04-25T13:52:22;15.00;;;6.80;;
41263;SDS011;26998;48.714;9.414;2023-04-25T13:54:49;8.82;;;6.03;;
41263;SDS011;26998;48.714;9.414;2023-04-25T13:57:16;6.63;;;5.70;;
41263;SDS011;26998;48.714;9.414;2023-04-25T13:59:44;10.13;;;6.85;;
41263;SDS011;26998;48.714;9.414;2023-04-25T14:02:10;8.07;;;5.82;;
41263;SDS011;26998;48.714;9.414;2023-04-25T14:04:37;7.72;;;6.07;;
41263;SDS011;26998;48.714;9.414;2023-04-25T14:07:04;8.02;;;6.13;;
41263;SDS011;26998;48.714;9.414;2023-04-25T14:09:30;10.82;;;6.20;;
41263;SDS011;26998;48.714;9.414;2023-04-25T14:11:57;7.95;;;5.80;;
41263;SDS011;26998;48.714;9.414;2023-04-25T14:14:23;10.50;;;6.80;;
41263;SDS011;26998;48.714;9.414;2023-04-25T14:16:50;8.70;;;6.85;;
41263;SDS011;26998;48.714;9.414;2023-04-25T14:19:18;9.13;;;7.07;;
41263;SDS011;26998;48.714;9.414;2023-04-25T14:21:47;14.68;;;9.95;;
41263;SDS011;26998;48.714;9.414;2023-04-25T14:24:13;22.08;;;7.15;;
41263;SDS011;26998;48.714;9.414;2023-04-25T14:26:40;7.05;;;6.05;;
41263;SDS011;26998;48.714;9.414;2023-04-25T14:29:07;9.32;;;6.00;;
41263;SDS011;26998;48.714;9.414;2023-04-25T14:31:34;18.58;;;6.90;;
41263;SDS011;26998;48.714;9.414;2023-04-25T14:34:01;11.50;;;7.50;;
41263;SDS011;26998;48.714;9.414;2023-04-25T14:36:28;12.30;;;6.90;;
41263;SDS011;26998;48.714;9.414;2023-04-25T14:38:55;11.00;;;6.82;;
41263;SDS011;26998;48.714;9.414;2023-04-25T14:41:25;8.70;;;6.05;;
41263;SDS011;26998;48.714;9.414;2023-04-25T14:43:52;12.50;;;7.07;;
41263;SDS011;26998;48.714;9.414;2023-04-25T14:46:19;8.27;;;7.25;;
41263;SDS011;26998;48.714;9.414;2023-04-25T14:48:46;7.55;;;6.05;;
41263;SDS011;26998;48.714;9.414;2023-04-25T14:51:13;10.93;;;6.20;;
41263;SDS011;26998;48.714;9.414;2023-04-25T14:53:40;11.73;;;7.32;;
41263;SDS011;26998;48.714;9.414;2023-04-25T14:56:07;9.77;;;7.03;;
41263;SDS011;26998;48.714;9.414;2023-04-25T14:58:34;8.10;;;6.28;;